createdAt,value
2024-02-01T00:02:27.953Z,0.78
2024-02-01T00:07:30.034Z,0.77
2024-02-01T00:12:31.983Z,0.80
2024-02-01T00:17:33.963Z,0.86
2024-02-01T00:22:36.113Z,0.90
2024-02-01T00:27:38.020Z,0.98
2024-02-01T00:32:40.040Z,1.06
2024-02-01T00:37:42.540Z,1.15
2024-02-01T00:42:44.496Z,1.21
2024-02-01T00:47:49.647Z,1.27
2024-02-01T00:52:51.931Z,1.31
2024-02-01T00:57:54.519Z,1.31
2024-02-01T01:02:56.468Z,1.29
2024-02-01T01:07:58.814Z,1.26
2024-02-01T01:13:00.714Z,1.24
2024-02-01T01:18:03.413Z,1.20
2024-02-01T01:23:07.382Z,1.14
2024-02-01T01:28:09.789Z,1.10
2024-02-01T01:33:11.698Z,1.08
2024-02-01T01:38:13.794Z,1.06
2024-02-01T01:43:15.696Z,1.04
2024-02-01T01:48:17.757Z,1.00
2024-02-01T01:53:19.813Z,0.97
2024-02-01T01:58:22.170Z,0.94
2024-02-01T02:03:28.683Z,0.92
2024-02-01T02:08:31.117Z,0.92
2024-02-01T02:13:33.061Z,0.90
2024-02-01T02:18:35.038Z,0.90
2024-02-01T02:23:37.618Z,0.92
2024-02-01T02:28:40.265Z,0.94
2024-02-01T02:33:42.843Z,0.96
2024-02-01T02:38:44.829Z,0.99
2024-02-01T02:43:46.889Z,1.01
2024-02-01T02:48:48.941Z,1.02
2024-02-01T02:53:51.011Z,0.99
2024-02-01T02:58:53.436Z,1.02
2024-02-01T03:03:55.451Z,1.04
2024-02-01T03:08:57.789Z,1.07
2024-02-01T03:14:00.079Z,1.11
2024-02-01T03:19:02.202Z,1.15
2024-02-01T03:24:05.326Z,1.16
2024-02-01T03:29:07.531Z,1.18
2024-02-01T03:34:12.526Z,1.17
2024-02-01T03:39:23.994Z,1.14
2024-02-01T03:44:26.638Z,1.12
2024-02-01T03:49:29.136Z,1.11
2024-02-01T03:54:32.667Z,1.11
2024-02-01T03:59:35.390Z,1.07
2024-02-01T04:09:40.414Z,1.06
2024-02-01T04:14:42.375Z,1.09
2024-02-01T04:19:44.807Z,1.12
2024-02-01T04:24:46.735Z,1.13
2024-02-01T04:29:48.610Z,1.15
2024-02-01T04:34:50.637Z,1.14
2024-02-01T04:39:52.851Z,1.13
2024-02-01T04:44:59.733Z,1.13
2024-02-01T04:50:03.344Z,1.12
2024-02-01T04:55:08.211Z,1.09
2024-02-01T05:00:15.910Z,1.06
2024-02-01T05:05:18.958Z,1.09
2024-02-01T05:10:21.036Z,1.13
2024-02-01T05:15:23.139Z,1.18
2024-02-01T05:20:26.162Z,1.21
2024-02-01T05:25:28.913Z,1.22
2024-02-01T05:30:31.310Z,1.26
2024-02-01T05:35:35.521Z,1.27
2024-02-01T05:40:40.963Z,1.27
2024-02-01T05:45:42.813Z,1.25
2024-02-01T05:50:44.711Z,1.23
2024-02-01T05:55:53.911Z,1.24
2024-02-01T06:00:56.196Z,1.25
2024-02-01T06:05:58.209Z,1.31
2024-02-01T06:11:00.093Z,1.38
2024-02-01T06:16:02.083Z,1.44
2024-02-01T06:21:04.034Z,1.52
2024-02-01T06:26:06.453Z,1.61
2024-02-01T06:31:14.950Z,1.68
2024-02-01T06:36:16.965Z,1.74
2024-02-01T06:41:29.115Z,1.81
2024-02-01T06:46:54.237Z,1.88
2024-02-01T06:52:04.150Z,1.95
2024-02-01T06:57:14.827Z,2.03
2024-02-01T07:02:36.194Z,2.09
2024-02-01T07:07:48.051Z,2.16
2024-02-01T07:13:08.995Z,2.24
2024-02-01T07:18:17.131Z,2.29
2024-02-01T07:23:23.163Z,2.37
2024-02-01T07:28:47.943Z,2.44
2024-02-01T07:34:08.961Z,2.53
2024-02-01T07:39:29.675Z,2.58
2024-02-01T07:44:50.336Z,2.63
2024-02-01T07:50:11.097Z,2.66
2024-02-01T07:55:31.699Z,2.73
2024-02-01T08:00:35.545Z,2.83
2024-02-01T08:05:57.543Z,2.94
2024-02-01T08:10:59.675Z,3.04
2024-02-01T08:16:04.629Z,3.10
2024-02-01T08:21:15.463Z,3.19
2024-02-01T08:26:17.679Z,3.31
2024-02-01T08:31:19.762Z,3.42
2024-02-01T08:36:21.852Z,3.54
2024-02-01T08:41:23.852Z,3.67
2024-02-01T08:46:25.729Z,3.81
2024-02-01T08:51:27.804Z,3.95
2024-02-01T08:56:38.388Z,4.08
2024-02-01T09:01:40.526Z,4.20
2024-02-01T09:06:42.558Z,4.27
2024-02-01T09:11:44.884Z,4.35
2024-02-01T09:16:47.177Z,4.41
2024-02-01T09:21:49.056Z,4.43
2024-02-01T09:26:51.071Z,4.42
2024-02-01T09:31:57.448Z,4.42
2024-02-01T09:36:59.567Z,4.40
2024-02-01T09:42:13.235Z,4.37
2024-02-01T09:47:16.059Z,4.35
2024-02-01T09:52:18.708Z,4.33
2024-02-01T09:57:20.783Z,4.34
2024-02-01T10:02:23.860Z,4.35
2024-02-01T10:07:25.854Z,4.33
2024-02-01T10:12:27.958Z,4.34
2024-02-01T10:17:31.588Z,4.33
2024-02-01T10:22:34.061Z,4.32
2024-02-01T10:27:42.297Z,4.33
2024-02-01T10:32:47.716Z,4.35
2024-02-01T10:37:53.194Z,4.38
2024-02-01T10:43:00.943Z,4.43
2024-02-01T10:48:09.592Z,4.42
2024-02-01T10:53:16.808Z,4.42
2024-02-01T10:58:20.748Z,4.38
2024-02-01T11:03:28.842Z,4.33
2024-02-01T11:08:34.375Z,4.33
2024-02-01T11:13:36.212Z,4.35
2024-02-01T11:18:48.893Z,4.35
2024-02-01T11:23:51.050Z,4.34
2024-02-01T11:28:54.376Z,4.31
2024-02-01T11:33:56.901Z,4.27
2024-02-01T11:38:58.895Z,4.25
2024-02-01T11:44:01.128Z,4.27
2024-02-01T11:49:03.214Z,4.32
2024-02-01T11:54:05.770Z,4.36
2024-02-01T11:59:08.155Z,4.36
2024-02-01T12:04:10.230Z,4.36
2024-02-01T12:09:15.721Z,4.41
2024-02-01T12:14:22.744Z,4.47
2024-02-01T12:19:25.576Z,4.51
2024-02-01T12:24:28.180Z,4.53
2024-02-01T12:29:30.746Z,4.51
2024-02-01T12:34:37.685Z,4.50
2024-02-01T12:39:41.887Z,4.49
2024-02-01T12:44:44.348Z,4.49
2024-02-01T12:49:46.688Z,4.49
2024-02-01T12:54:48.596Z,4.48
2024-02-01T12:59:50.671Z,4.47
2024-02-01T13:04:54.013Z,4.46
2024-02-01T13:09:56.176Z,4.48
2024-02-01T13:15:07.357Z,4.56
2024-02-01T13:20:23.549Z,4.59
2024-02-01T13:25:26.066Z,4.63
2024-02-01T13:30:28.535Z,4.70
2024-02-01T13:35:32.173Z,4.70
2024-02-01T13:40:34.724Z,4.71
2024-02-01T13:45:36.633Z,4.76
2024-02-01T13:50:39.074Z,4.80
2024-02-01T13:55:40.928Z,4.83
2024-02-01T14:00:51.454Z,4.93
2024-02-01T14:06:00.397Z,4.96
2024-02-01T14:11:02.710Z,4.93
2024-02-01T14:16:08.730Z,4.97
2024-02-01T14:21:10.787Z,4.96
2024-02-01T14:26:12.784Z,5.01
2024-02-01T14:31:15.285Z,5.08
2024-02-01T14:36:18.673Z,5.13
2024-02-01T14:41:21.109Z,5.18
2024-02-01T14:46:22.938Z,5.23
2024-02-01T14:51:24.763Z,5.19
2024-02-01T14:56:26.728Z,5.11
2024-02-01T15:01:29.615Z,4.98
2024-02-01T15:06:32.440Z,4.85
2024-02-01T15:11:34.535Z,4.73
2024-02-01T15:16:36.576Z,4.65
2024-02-01T15:21:40.908Z,4.56
2024-02-01T15:26:44.163Z,4.45
2024-02-01T15:31:48.834Z,4.33
2024-02-01T15:36:50.678Z,4.23
2024-02-01T15:41:59.262Z,4.10
2024-02-01T15:47:01.901Z,3.98
2024-02-01T15:52:05.367Z,3.85
2024-02-01T15:57:07.315Z,3.74
2024-02-01T16:02:10.599Z,3.60
2024-02-01T16:07:12.618Z,3.48
2024-02-01T16:12:20.149Z,3.39
2024-02-01T16:17:22.665Z,3.30
2024-02-01T16:22:47.272Z,3.20
2024-02-01T16:28:04.946Z,3.09
2024-02-01T16:33:21.108Z,3.01
2024-02-01T16:38:26.114Z,2.94
2024-02-01T16:43:41.874Z,2.90
2024-02-01T16:48:44.316Z,2.89
2024-02-01T16:53:48.237Z,2.90
2024-02-01T16:58:57.791Z,2.89
2024-02-01T17:04:00.635Z,2.88
2024-02-01T17:09:05.977Z,2.87
2024-02-01T17:14:30.760Z,2.90
2024-02-01T17:19:38.440Z,2.93
2024-02-01T17:24:40.676Z,2.97
2024-02-01T17:29:45.123Z,3.01
2024-02-01T17:34:47.357Z,3.05
2024-02-01T17:39:49.717Z,3.08
2024-02-01T17:44:51.804Z,3.10
2024-02-01T17:49:54.804Z,3.13
2024-02-01T17:54:57.738Z,3.16
2024-02-01T18:00:00.011Z,3.17
2024-02-01T18:05:02.059Z,3.18
2024-02-01T18:10:09.674Z,3.19
2024-02-01T18:15:37.222Z,3.22
2024-02-01T18:20:39.654Z,3.26
2024-02-01T18:25:42.371Z,3.30
2024-02-01T18:30:44.723Z,3.33
2024-02-01T18:35:57.173Z,3.35
2024-02-01T18:40:59.694Z,3.35
2024-02-01T18:46:03.406Z,3.34
2024-02-01T18:51:07.644Z,3.34
2024-02-01T18:56:29.347Z,3.31
2024-02-01T19:01:36.262Z,3.30
2024-02-01T19:06:41.809Z,3.28
2024-02-01T19:11:46.532Z,3.29
2024-02-01T19:16:50.674Z,3.30
2024-02-01T19:21:53.062Z,3.35
2024-02-01T19:26:57.579Z,3.40
2024-02-01T19:32:00.463Z,3.42
2024-02-01T19:37:02.388Z,3.44
2024-02-01T19:42:05.492Z,3.45
2024-02-01T19:47:07.561Z,3.46
2024-02-01T19:52:09.546Z,3.44
2024-02-01T19:57:11.445Z,3.44
2024-02-01T20:02:14.336Z,3.43
2024-02-01T20:07:16.703Z,3.40
2024-02-01T20:12:18.779Z,3.37
2024-02-01T20:17:21.136Z,3.31
2024-02-01T20:22:23.475Z,3.22
2024-02-01T20:27:25.516Z,3.11
2024-02-01T20:32:30.528Z,3.00
2024-02-01T20:37:33.952Z,2.92
2024-02-01T20:42:35.834Z,2.87
2024-02-01T20:47:41.085Z,2.81
2024-02-01T20:52:43.366Z,2.75
2024-02-01T20:57:48.630Z,2.76
2024-02-01T21:02:53.734Z,2.75
2024-02-01T21:07:56.170Z,2.74
2024-02-01T21:13:15.031Z,2.71
2024-02-01T21:18:20.654Z,2.69
2024-02-01T21:23:27.036Z,2.69
2024-02-01T21:28:29.207Z,2.70
2024-02-01T21:33:31.251Z,2.75
2024-02-01T21:38:33.912Z,2.79
2024-02-01T21:43:37.472Z,2.82
2024-02-01T21:48:40.729Z,2.85
2024-02-01T21:53:44.277Z,2.88
2024-02-01T21:58:47.193Z,2.91
2024-02-01T22:03:49.517Z,2.91
2024-02-01T22:08:55.484Z,2.93
2024-02-01T22:13:57.373Z,2.95
2024-02-01T22:18:59.376Z,2.96
2024-02-01T22:24:01.477Z,2.97
2024-02-01T22:29:03.785Z,2.97
2024-02-01T22:34:05.931Z,2.97
2024-02-01T22:39:17.262Z,2.98
2024-02-01T22:44:20.554Z,3.00
2024-02-01T22:49:22.586Z,3.02
2024-02-01T22:54:25.547Z,3.04
2024-02-01T22:59:28.917Z,3.07
2024-02-01T23:04:30.781Z,3.10
2024-02-01T23:09:33.109Z,3.13
2024-02-01T23:14:35.342Z,3.15
2024-02-01T23:19:37.599Z,3.16
2024-02-01T23:24:42.009Z,3.18
2024-02-01T23:29:43.954Z,3.19
2024-02-01T23:34:46.276Z,3.20
2024-02-01T23:39:48.619Z,3.22
2024-02-01T23:44:50.554Z,3.22
2024-02-01T23:49:52.586Z,3.25
2024-02-01T23:54:56.646Z,3.27
2024-02-01T23:59:58.648Z,3.29
